createdAt,value
2022-09-12T00:00:29.420Z,7.60
2022-09-12T00:10:51.987Z,6.93
2022-09-12T00:21:14.429Z,7.05
2022-09-12T00:31:36.910Z,7.20
2022-09-12T00:41:58.447Z,7.53
2022-09-12T00:52:25.416Z,7.63
2022-09-12T01:02:52.997Z,7.47
2022-09-12T01:13:15.778Z,6.55
2022-09-12T01:23:54.840Z,7.65
2022-09-12T01:34:21.497Z,7.03
2022-09-12T01:44:48.618Z,5.53
2022-09-12T01:55:13.800Z,6.15
2022-09-12T02:05:36.674Z,6.05
2022-09-12T02:16:00.872Z,6.97
2022-09-12T02:26:24.540Z,6.82
2022-09-12T02:36:52.129Z,6.65
2022-09-12T02:47:16.102Z,7.10
2022-09-12T02:57:38.809Z,6.07
2022-09-12T03:08:09.910Z,6.93
2022-09-12T03:18:42.026Z,6.57
2022-09-12T03:29:04.415Z,6.63
2022-09-12T03:39:27.938Z,6.20
2022-09-12T03:49:49.462Z,6.72
2022-09-12T04:00:16.391Z,6.88
2022-09-12T04:10:41.359Z,7.13
2022-09-12T04:21:06.454Z,6.88
2022-09-12T04:31:28.135Z,6.82
2022-09-12T04:41:51.695Z,6.80
2022-09-12T04:52:12.842Z,7.82
2022-09-12T05:02:35.649Z,7.13
2022-09-12T05:12:56.750Z,6.68
2022-09-12T05:23:19.530Z,6.28
2022-09-12T05:33:41.774Z,6.75
2022-09-12T05:44:05.358Z,7.70
2022-09-12T05:54:31.336Z,7.00
2022-09-12T06:04:53.974Z,7.10
2022-09-12T06:15:16.519Z,7.95
2022-09-12T06:25:38.967Z,8.57
2022-09-12T06:36:03.623Z,9.30
2022-09-12T06:46:26.196Z,11.35
2022-09-12T06:56:47.238Z,10.57
2022-09-12T07:07:10.258Z,8.32
2022-09-12T07:17:31.858Z,8.25
2022-09-12T07:27:55.358Z,7.38
2022-09-12T07:38:16.984Z,5.40
2022-09-12T07:48:40.276Z,4.50
2022-09-12T07:59:01.926Z,4.85
2022-09-12T08:09:24.677Z,4.65
2022-09-12T08:19:45.871Z,4.05
2022-09-12T08:30:09.853Z,4.35
2022-09-12T08:40:30.956Z,3.72
2022-09-12T08:50:53.729Z,3.28
2022-09-12T09:01:19.880Z,2.58
2022-09-12T09:11:50.860Z,2.75
2022-09-12T09:22:13.620Z,2.80
2022-09-12T09:32:37.748Z,2.00
2022-09-12T09:43:02.467Z,1.90
2022-09-12T09:53:29.671Z,1.67
2022-09-12T10:03:51.662Z,1.80
2022-09-12T10:14:28.115Z,1.45
2022-09-12T10:24:52.346Z,1.88
2022-09-12T10:35:19.411Z,2.25
2022-09-12T10:45:40.782Z,2.10
2022-09-12T10:56:08.875Z,2.20
2022-09-12T11:06:36.187Z,1.90
2022-09-12T11:17:02.259Z,2.08
2022-09-12T11:27:33.989Z,2.10
2022-09-12T11:38:02.917Z,1.67
2022-09-12T11:48:33.362Z,1.88
2022-09-12T11:58:59.548Z,1.77
2022-09-12T12:09:20.958Z,1.70
2022-09-12T12:19:43.783Z,1.40
2022-09-12T12:40:29.554Z,1.50
2022-09-12T12:50:50.675Z,1.55
2022-09-12T13:01:15.015Z,1.70
2022-09-12T13:11:37.744Z,1.50
2022-09-12T13:22:03.115Z,1.85
2022-09-12T13:32:30.820Z,1.50
2022-09-12T13:42:54.724Z,1.50
2022-09-12T13:53:17.046Z,1.83
2022-09-12T14:03:59.549Z,1.70
2022-09-12T14:14:22.177Z,1.83
2022-09-12T14:24:50.416Z,1.90
2022-09-12T14:36:10.999Z,2.20
2022-09-12T14:46:34.623Z,1.70
2022-09-12T14:56:57.545Z,2.00
2022-09-12T15:07:25.727Z,1.90
2022-09-12T15:17:47.694Z,2.33
2022-09-12T15:28:16.682Z,2.38
2022-09-12T15:38:38.344Z,2.10
2022-09-12T15:49:01.301Z,1.90
2022-09-12T15:59:22.501Z,2.00
2022-09-12T16:09:46.266Z,2.55
2022-09-12T16:20:08.556Z,2.92
2022-09-12T16:30:31.542Z,2.30
2022-09-12T16:40:52.988Z,2.42
2022-09-12T16:51:16.161Z,3.17
2022-09-12T17:01:37.546Z,3.50
2022-09-12T17:12:00.697Z,5.45
2022-09-12T17:22:22.031Z,5.07
2022-09-12T17:32:44.679Z,5.28
2022-09-12T17:43:06.252Z,4.93
2022-09-12T17:53:32.652Z,5.50
2022-09-12T18:03:57.225Z,5.25
2022-09-12T18:14:20.298Z,4.03
2022-09-12T18:24:41.716Z,4.90
2022-09-12T18:35:04.267Z,4.90
2022-09-12T18:45:25.761Z,5.40
2022-09-12T18:55:48.543Z,4.80
2022-09-12T19:06:11.763Z,4.97
2022-09-12T19:16:37.807Z,5.22
2022-09-12T19:26:58.937Z,5.15
2022-09-12T19:37:21.721Z,4.93
2022-09-12T19:47:43.152Z,4.72
2022-09-12T19:58:06.613Z,4.35
2022-09-12T20:08:27.607Z,4.78
2022-09-12T20:18:53.548Z,4.90
2022-09-12T20:29:14.889Z,4.90
2022-09-12T20:39:37.482Z,5.15
2022-09-12T20:49:58.601Z,5.57
2022-09-12T21:00:22.293Z,5.85
2022-09-12T21:10:43.986Z,4.78
2022-09-12T21:21:06.894Z,5.00
2022-09-12T21:31:28.467Z,5.45
2022-09-12T21:41:51.137Z,5.30
2022-09-12T21:52:13.470Z,6.10
2022-09-12T22:02:36.741Z,5.20
2022-09-12T22:12:58.102Z,5.43
2022-09-12T22:23:37.843Z,5.65
2022-09-12T22:33:59.693Z,5.82
2022-09-12T22:44:22.446Z,6.03
2022-09-12T22:54:44.056Z,6.43
2022-09-12T23:05:06.982Z,6.22
2022-09-12T23:15:28.259Z,5.93
2022-09-12T23:25:52.383Z,5.47
2022-09-12T23:36:14.516Z,5.38
2022-09-12T23:46:37.326Z,5.15
2022-09-12T23:56:58.952Z,4.82
